Time;durP1;ratioP1;P1;durP2;ratioP2;P2;SDS_P1;SDS_P2;PMS_P1;PMS_P2;Temp;Humidity;BMP_temperature;BMP_pressure;BME280_temperature;BME280_humidity;BME280_pressure;Samples;Min_cycle;Max_cycle;Signal;HPM_P1;HPM_P2
2022/10/15 00:00:35;;;;;;;10.77;9.77;;;;;;;;;;5117711;28;20209;-68
2022/10/15 00:03:02;;;;;;;12.10;11.17;;;;;;;-142.65;100.00;50170.78;5117153;28;20192;-68
2022/10/15 00:05:28;;;;;;;16.23;13.67;;;;;;;-142.65;100.00;50162.81;5117063;28;20189;-68
2022/10/15 00:07:55;;;;;;;14.33;12.93;;;;;;;-142.65;100.00;50164.81;5117349;28;20181;-68
2022/10/15 00:10:22;;;;;;;13.83;12.47;;;;;;;-142.65;100.00;50162.81;5117090;28;20213;-68
2022/10/15 00:12:48;;;;;;;13.33;12.07;;;;;;;;;;5116984;28;20554;-67
2022/10/15 00:15:15;;;;;;;12.83;11.73;;;;;;;-142.65;100.00;50168.78;5116913;28;20185;-67
2022/10/15 00:17:41;;;;;;;13.77;12.53;;;;;;;-142.65;100.00;50164.81;5116892;28;20197;-67
2022/10/15 00:20:09;;;;;;;14.00;12.70;;;;;;;;;;5116787;28;20204;-68
2022/10/15 00:22:35;;;;;;;15.17;13.10;;;;;;;-142.65;100.00;50160.81;5117041;28;20193;-68
2022/10/15 00:25:03;;;;;;;13.00;12.00;;;;;;;-142.65;100.00;50160.81;5116707;28;20193;-68
2022/10/15 00:27:30;;;;;;;13.80;12.57;;;;;;;-142.65;100.00;50168.78;5116696;28;20189;-68
2022/10/15 00:29:58;;;;;;;13.37;12.27;;;;;;;;;;5098182;28;20231;-67
2022/10/15 00:32:25;;;;;;;16.20;12.73;;;;;;;;;;5098332;28;20200;-67
2022/10/15 00:34:51;;;;;;;12.50;11.40;;;;;;;-142.65;100.00;50118.97;5116770;28;20200;-67
2022/10/15 00:37:19;;;;;;;12.43;11.43;;;;;;;;;;5116466;28;20655;-67
2022/10/15 00:39:46;;;;;;;17.50;11.03;;;;;;;-142.65;100.00;50164.81;5116381;28;20189;-68
2022/10/15 00:42:12;;;;;;;13.40;12.00;;;;;;;-142.65;100.00;50162.81;5098128;28;20193;-67
2022/10/15 00:44:47;;;;;;;13.83;11.00;;;;;;;;;;5098060;28;20185;-67
2022/10/15 00:47:19;;;;;;;12.80;11.83;;;;;;;-142.65;100.00;50162.81;5116561;28;20181;-67
2022/10/15 00:49:54;;;;;;;11.70;11.00;;;;;;;-142.65;100.00;50170.78;5097833;28;20209;-68
2022/10/15 00:52:42;;;;;;;11.97;11.07;;;;;;;;;;5098213;28;20193;-67
2022/10/15 00:55:12;;;;;;;13.63;12.43;;;;;;;;;;5116745;28;20178;-67
2022/10/15 00:57:39;;;;;;;11.50;10.53;;;;;;;;;;5116379;28;20178;-67
2022/10/15 01:00:08;;;;;;;12.93;11.67;;;;;;;;;;5116193;28;20212;-68
2022/10/15 01:02:37;;;;;;;12.60;11.57;;;;;;;-142.65;100.00;50168.78;5097779;28;20221;-68
2022/10/15 01:05:04;;;;;;;12.00;11.07;;;;;;;;;;5097712;28;20284;-68
2022/10/15 01:07:31;;;;;;;18.23;13.30;;;;;;;-142.65;100.00;50164.81;5116201;28;20308;-68
2022/10/15 01:09:57;;;;;;;15.23;13.63;;;;;;;-142.65;100.00;50117.00;5115706;28;20224;-68
2022/10/15 01:12:39;;;;;;;15.20;13.63;;;;;;;-142.65;100.00;50162.81;5116421;28;20535;-68
2022/10/15 01:15:32;;;;;;;14.93;13.40;;;;;;;-142.65;100.00;50162.81;5115646;28;20193;-68
2022/10/15 01:18:09;;;;;;;13.13;12.07;;;;;;;-142.65;100.00;50164.81;5116014;28;20173;-68
2022/10/15 01:20:59;;;;;;;11.53;10.67;;;;;;;-142.65;100.00;50170.78;5097291;28;20212;-68
2022/10/15 01:23:51;;;;;;;15.33;13.30;;;;;;;-142.65;100.00;50168.78;5115892;28;20174;-67
2022/10/15 01:26:47;;;;;;;16.67;14.33;;;;;;;-142.65;100.00;50170.78;5097279;28;20189;-67
2022/10/15 01:29:57;;;;;;;15.13;13.20;;;;;;;-142.65;100.00;50162.81;5027912;28;20263;-67
2022/10/15 01:32:27;;;;;;;16.13;14.47;;;;;;;;;;5115419;28;20647;-68
2022/10/15 01:35:05;;;;;;;14.67;13.20;;;;;;;-142.65;100.00;50164.81;5097119;28;20197;-67
2022/10/15 01:37:58;;;;;;;19.57;14.03;;;;;;;-142.65;100.00;50162.81;5097091;28;20566;-67
2022/10/15 01:40:34;;;;;;;18.00;15.33;;;;;;;-142.65;100.00;50164.81;5096968;28;20303;-67
2022/10/15 01:43:08;;;;;;;15.03;13.47;;;;;;;;;;5097604;28;20544;-67
2022/10/15 01:45:50;;;;;;;25.70;15.97;;;;;;;;;;5096891;28;20294;-67
2022/10/15 01:48:36;;;;;;;27.23;17.03;;;;;;;;;;5096764;28;20181;-67
2022/10/15 01:51:04;;;;;;;35.87;16.80;;;;;;;-142.65;100.00;50162.81;5114972;28;20212;-68
2022/10/15 01:53:34;;;;;;;28.37;17.57;;;;;;;-142.65;100.00;50118.97;5096757;28;20246;-68
2022/10/15 01:56:07;;;;;;;63.00;24.10;;;;;;;;;;5096748;28;20197;-68
2022/10/15 01:58:37;;;;;;;61.23;24.63;;;;;;;-142.65;100.00;50101.06;5115465;28;20546;-68
2022/10/15 02:01:04;;;;;;;63.47;23.67;;;;;;;-142.65;100.00;50164.81;5096490;28;20757;-68
2022/10/15 02:03:46;;;;;;;59.70;22.10;;;;;;;-142.65;100.00;50162.81;5096493;28;20200;-68
2022/10/15 02:06:19;;;;;;;53.90;21.80;;;;;;;-142.65;100.00;50170.78;5115082;28;20173;-67
2022/10/15 02:09:13;;;;;;;44.80;21.20;;;;;;;-142.65;100.00;50170.78;5114661;28;20178;-67
2022/10/15 02:11:53;;;;;;;43.83;22.03;;;;;;;;;;5096376;28;20213;-68
2022/10/15 02:14:27;;;;;;;52.97;21.97;;;;;;;;;;5095848;28;20219;-68
2022/10/15 02:17:07;;;;;;;56.00;22.10;;;;;;;-142.65;100.00;50172.78;5115377;28;20177;-68
2022/10/15 02:19:48;;;;;;;83.23;25.93;;;;;;;-142.65;100.00;50168.78;5115006;28;20226;-68
2022/10/15 02:22:20;;;;;;;90.97;28.40;;;;;;;-142.65;100.00;50170.78;5114531;28;20586;-68
2022/10/15 02:25:01;;;;;;;80.03;29.30;;;;;;;-142.65;100.00;50164.81;5114721;28;20188;-68
2022/10/15 02:27:31;;;;;;;89.63;31.23;;;;;;;-142.65;100.00;50162.81;5114641;28;20635;-68
2022/10/15 02:29:59;;;;;;;91.23;30.27;;;;;;;;;;5095993;28;20289;-68
2022/10/15 02:32:27;;;;;;;88.60;30.57;;;;;;;-142.65;100.00;50164.81;5096036;28;20185;-68
2022/10/15 02:34:54;;;;;;;92.30;31.83;;;;;;;-142.65;100.00;50118.97;5095963;28;20593;-68
2022/10/15 02:37:24;;;;;;;92.03;30.97;;;;;;;-142.65;100.00;50170.78;5114749;28;20576;-68
2022/10/15 02:39:51;;;;;;;89.13;30.30;;;;;;;-142.65;100.00;50170.78;5114418;28;20552;-68
2022/10/15 02:42:18;;;;;;;81.03;28.63;;;;;;;-142.65;100.00;50170.78;5114124;28;20181;-67
2022/10/15 02:44:46;;;;;;;72.37;26.80;;;;;;;;;;5095822;28;20188;-67
2022/10/15 02:47:13;;;;;;;62.80;25.47;;;;;;;-142.65;100.00;50162.81;5114267;28;20682;-67
2022/10/15 02:49:40;;;;;;;62.20;25.77;;;;;;;-142.65;100.00;50164.81;5095858;28;20687;-68
2022/10/15 02:52:06;;;;;;;69.43;26.67;;;;;;;-142.65;100.00;50176.75;5096545;28;20189;-67
2022/10/15 02:54:32;;;;;;;62.00;23.27;;;;;;;-142.65;100.00;50172.78;5114204;28;20594;-67
2022/10/15 02:56:59;;;;;;;56.27;23.00;;;;;;;-142.65;100.00;50170.78;5095654;28;20238;-67
2022/10/15 02:59:26;;;;;;;44.30;22.83;;;;;;;-142.65;100.00;50164.81;5095626;28;20196;-67
2022/10/15 03:01:53;;;;;;;37.40;20.77;;;;;;;;;;5095492;28;20683;-68
2022/10/15 03:04:20;;;;;;;32.53;19.90;;;;;;;;;;5096470;28;20184;-68
2022/10/15 03:06:46;;;;;;;30.97;20.53;;;;;;;;;;5095658;28;20189;-68
2022/10/15 03:09:13;;;;;;;30.20;17.60;;;;;;;;;;5095441;28;20213;-68
2022/10/15 03:11:39;;;;;;;26.57;17.53;;;;;;;-142.65;100.00;50170.78;5095386;28;20209;-68
2022/10/15 03:14:06;;;;;;;27.63;17.47;;;;;;;-142.65;100.00;50164.81;5095465;28;20246;-68
2022/10/15 03:16:33;;;;;;;28.60;19.03;;;;;;;;;;5095443;28;20228;-68
2022/10/15 03:18:59;;;;;;;38.60;19.10;;;;;;;-142.65;100.00;50162.81;5095455;28;20189;-68
2022/10/15 03:21:29;;;;;;;29.43;18.50;;;;;;;-142.65;100.00;50174.75;5095330;28;20706;-68
2022/10/15 03:24:02;;;;;;;33.47;19.47;;;;;;;-142.65;100.00;50168.78;5096284;28;20212;-68
2022/10/15 03:26:28;;;;;;;34.63;19.67;;;;;;;-142.65;100.00;50162.81;5115110;28;20539;-68
2022/10/15 03:28:54;;;;;;;23.97;17.17;;;;;;;-142.65;100.00;50168.78;5118313;28;20264;-68
2022/10/15 03:31:32;;;;;;;29.40;18.47;;;;;;;;;;5099440;28;20220;-68
2022/10/15 03:34:00;;;;;;;28.73;18.33;;;;;;;;;;5099461;28;20193;-68
2022/10/15 03:36:27;;;;;;;26.97;17.97;;;;;;;-142.65;100.00;50162.81;5117718;28;20703;-68
2022/10/15 03:38:53;;;;;;;30.00;18.60;;;;;;;-142.65;100.00;50164.81;5100456;28;20185;-68
2022/10/15 03:41:20;;;;;;;36.00;19.60;;;;;;;;;;5099289;28;20232;-68
2022/10/15 03:43:47;;;;;;;31.47;18.97;;;;;;;-142.65;100.00;50162.81;5117724;28;20200;-68
2022/10/15 03:46:15;;;;;;;26.80;17.47;;;;;;;-142.65;100.00;50162.81;5117721;28;20205;-68
2022/10/15 03:48:48;;;;;;;27.43;18.40;;;;;;;-142.65;100.00;50162.81;5117405;28;20647;-68
2022/10/15 03:51:14;;;;;;;25.07;17.17;;;;;;;;;;5099275;28;20311;-68
2022/10/15 03:53:50;;;;;;;22.63;17.47;;;;;;;;;;5099627;28;20192;-68
2022/10/15 03:56:16;;;;;;;29.10;18.53;;;;;;;;;;5099071;28;20663;-67
2022/10/15 03:58:42;;;;;;;24.17;17.50;;;;;;;;;;5099013;28;20212;-67
2022/10/15 04:01:15;;;;;;;29.97;19.17;;;;;;;-142.65;100.00;50168.78;5098842;28;20209;-67
2022/10/15 04:03:42;;;;;;;28.67;19.47;;;;;;;;;;5098861;28;20193;-67
2022/10/15 04:06:08;;;;;;;30.73;20.47;;;;;;;;;;5099091;28;20608;-67
2022/10/15 04:08:35;;;;;;;28.00;19.73;;;;;;;;;;5099044;28;20288;-67
2022/10/15 04:11:16;;;;;;;27.33;18.57;;;;;;;-142.65;100.00;50162.81;5098628;28;20221;-68
2022/10/15 04:13:46;;;;;;;28.83;19.70;;;;;;;;;;5098511;28;20221;-67
2022/10/15 04:16:13;;;;;;;31.87;18.87;;;;;;;-142.65;100.00;50168.78;5117496;28;20172;-67
2022/10/15 04:18:39;;;;;;;30.90;18.80;;;;;;;-142.65;100.00;50170.78;5117168;28;20186;-67
2022/10/15 04:21:05;;;;;;;26.43;18.13;;;;;;;-142.65;100.00;50172.78;5098461;28;20201;-67
2022/10/15 04:23:32;;;;;;;24.70;17.07;;;;;;;;;;5117345;28;20193;-67
2022/10/15 04:26:25;;;;;;;25.57;18.87;;;;;;;-142.65;100.00;50172.78;5098467;28;20189;-67
2022/10/15 04:28:52;;;;;;;23.03;17.13;;;;;;;-142.65;100.00;50162.81;5098453;28;20539;-67
2022/10/15 04:31:20;;;;;;;23.77;18.27;;;;;;;-142.65;100.00;50170.78;5098386;28;20229;-68
2022/10/15 04:33:48;;;;;;;22.17;17.73;;;;;;;;;;5099187;28;20196;-68
2022/10/15 04:36:15;;;;;;;25.30;18.80;;;;;;;-142.65;100.00;50118.97;5098251;28;20238;-68
2022/10/15 04:38:57;;;;;;;27.87;18.50;;;;;;;-142.65;100.00;50118.97;5097709;28;20181;-68
2022/10/15 04:41:31;;;;;;;21.90;16.60;;;;;;;-142.65;100.00;50162.81;5098719;28;20636;-68
2022/10/15 04:44:02;;;;;;;24.17;18.40;;;;;;;-142.65;100.00;50168.78;5098726;28;20216;-67
2022/10/15 04:46:30;;;;;;;27.87;18.57;;;;;;;-142.65;100.00;50164.81;5098090;28;20200;-67
2022/10/15 04:49:00;;;;;;;26.57;19.60;;;;;;;-142.65;100.00;50164.81;5098580;28;20193;-67
2022/10/15 04:51:27;;;;;;;26.23;19.43;;;;;;;;;;5097825;28;20217;-68
2022/10/15 04:54:00;;;;;;;24.03;18.87;;;;;;;-142.65;100.00;50162.81;5098233;28;20227;-68
2022/10/15 04:56:28;;;;;;;24.20;18.27;;;;;;;;;;5097866;28;20189;-68
2022/10/15 04:58:55;;;;;;;28.10;19.43;;;;;;;-142.65;100.00;50168.78;5097839;28;20185;-68
2022/10/15 05:01:24;;;;;;;25.13;18.77;;;;;;;-142.65;100.00;50170.78;5097698;28;20219;-68
2022/10/15 05:03:59;;;;;;;21.10;18.40;;;;;;;;;;5098651;28;20184;-68
2022/10/15 05:06:26;;;;;;;26.83;18.80;;;;;;;-142.65;100.00;50170.78;5097923;28;20227;-68
2022/10/15 05:08:57;;;;;;;30.63;22.07;;;;;;;-142.65;100.00;50164.81;5098434;28;20276;-67
2022/10/15 05:11:27;;;;;;;36.43;22.80;;;;;;;-142.65;100.00;50168.78;5097707;28;20311;-68
2022/10/15 05:13:56;;;;;;;30.97;20.77;;;;;;;;;;5097417;28;20197;-68
2022/10/15 05:16:25;;;;;;;29.77;20.13;;;;;;;;;;5097491;28;20212;-68
2022/10/15 05:18:56;;;;;;;37.13;22.17;;;;;;;-142.65;100.00;50170.78;5097711;28;20280;-67
2022/10/15 05:21:22;;;;;;;31.93;22.17;;;;;;;;;;5097379;28;20209;-67
2022/10/15 05:23:53;;;;;;;37.20;21.60;;;;;;;-142.65;100.00;50162.81;5097557;28;20185;-67
2022/10/15 05:26:39;;;;;;;32.97;21.63;;;;;;;-142.65;100.00;50164.81;5115492;28;20197;-67
2022/10/15 05:29:06;;;;;;;27.43;19.17;;;;;;;-142.65;100.00;50172.78;5097236;28;20284;-67
2022/10/15 05:31:33;;;;;;;33.60;20.83;;;;;;;;;;5097305;28;20221;-68
2022/10/15 05:34:08;;;;;;;29.83;18.40;;;;;;;;;;5098042;28;20219;-68
2022/10/15 05:36:42;;;;;;;24.70;18.47;;;;;;;-142.65;100.00;50162.81;5098200;28;20188;-68
2022/10/15 05:39:11;;;;;;;33.40;21.73;;;;;;;-142.65;100.00;50164.81;5097404;28;20273;-68
2022/10/15 05:41:42;;;;;;;25.43;18.67;;;;;;;;;;5096970;28;20217;-68
2022/10/15 05:44:08;;;;;;;28.33;19.47;;;;;;;-142.65;100.00;50170.78;5097254;28;20189;-67
2022/10/15 05:46:35;;;;;;;23.90;17.57;;;;;;;-142.65;100.00;50164.81;5097762;28;20234;-67
2022/10/15 05:49:02;;;;;;;30.70;17.87;;;;;;;-142.65;100.00;50170.78;5095933;28;20192;-67
2022/10/15 05:51:38;;;;;;;30.57;19.63;;;;;;;-142.65;100.00;50162.81;5096997;28;20763;-68
2022/10/15 05:54:09;;;;;;;26.33;19.90;;;;;;;-142.65;100.00;50162.81;5097630;28;20215;-68
2022/10/15 05:56:37;;;;;;;27.07;18.63;;;;;;;-142.65;100.00;50164.81;5115245;28;20276;-68
2022/10/15 05:59:03;;;;;;;21.40;16.40;;;;;;;;;;5114895;28;20181;-68
2022/10/15 06:01:30;;;;;;;27.97;20.47;;;;;;;-142.65;100.00;50162.81;5114803;28;20216;-68
2022/10/15 06:03:56;;;;;;;27.27;17.87;;;;;;;-142.65;100.00;50170.78;5115070;28;20663;-67
2022/10/15 06:06:25;;;;;;;27.23;18.23;;;;;;;-142.65;100.00;50168.78;5114700;28;20671;-67
2022/10/15 06:08:53;;;;;;;22.20;18.03;;;;;;;-142.65;100.00;50164.81;5114970;28;20189;-67
2022/10/15 06:11:19;;;;;;;24.33;17.13;;;;;;;-142.65;100.00;50168.78;5114505;28;20213;-68
2022/10/15 06:13:46;;;;;;;23.73;17.33;;;;;;;-142.65;100.00;50168.78;5114541;28;20205;-67
2022/10/15 06:16:14;;;;;;;22.87;17.53;;;;;;;;;;5114862;28;20177;-67
2022/10/15 06:18:46;;;;;;;26.73;18.33;;;;;;;-142.65;100.00;50162.81;5115070;28;20178;-67
2022/10/15 06:21:12;;;;;;;25.73;17.73;;;;;;;-142.65;100.00;50170.78;5115158;28;20209;-68
2022/10/15 06:23:39;;;;;;;30.43;20.00;;;;;;;;;;5114634;28;20185;-67
2022/10/15 06:26:06;;;;;;;31.13;19.73;;;;;;;;;;5114641;28;20185;-67
2022/10/15 06:28:33;;;;;;;27.70;18.60;;;;;;;-142.65;100.00;50164.81;5114339;28;20200;-67
2022/10/15 06:31:00;;;;;;;33.43;19.20;;;;;;;-142.65;100.00;50168.78;5114218;28;20622;-68
2022/10/15 06:33:29;;;;;;;31.80;21.93;;;;;;;-142.65;100.00;50162.81;5114459;28;20181;-67
2022/10/15 06:36:00;;;;;;;30.37;20.53;;;;;;;-142.65;100.00;50162.81;5114169;28;20599;-67
2022/10/15 06:38:27;;;;;;;33.70;21.33;;;;;;;;;;5114158;28;20187;-67
2022/10/15 06:40:53;;;;;;;25.47;18.43;;;;;;;-142.65;100.00;50162.81;5114007;28;20566;-68
2022/10/15 06:43:19;;;;;;;29.33;20.57;;;;;;;;;;5114144;28;20523;-68
2022/10/15 06:45:46;;;;;;;35.77;20.83;;;;;;;-142.65;100.00;50164.81;5114283;28;20196;-68
2022/10/15 06:48:15;;;;;;;26.50;19.33;;;;;;;-142.65;100.00;50164.81;5114002;28;20275;-68
2022/10/15 06:50:42;;;;;;;31.83;19.90;;;;;;;-142.65;100.00;50170.78;5113831;28;20217;-68
2022/10/15 06:53:08;;;;;;;27.57;18.83;;;;;;;;;;5113970;28;20181;-68
2022/10/15 06:55:35;;;;;;;22.10;18.43;;;;;;;;;;5114190;28;20200;-69
2022/10/15 06:58:01;;;;;;;33.43;20.47;;;;;;;-142.65;100.00;50168.78;5113900;28;20189;-68
2022/10/15 07:00:28;;;;;;;34.30;20.07;;;;;;;-142.65;100.00;50118.97;5113627;28;20201;-68
2022/10/15 07:02:54;;;;;;;36.27;21.90;;;;;;;;;;5114384;28;20604;-68
2022/10/15 07:05:20;;;;;;;39.07;21.03;;;;;;;;;;5113766;28;20647;-68
2022/10/15 07:07:51;;;;;;;29.70;19.43;;;;;;;-142.65;100.00;50162.81;5113760;28;20188;-68
2022/10/15 07:10:19;;;;;;;26.80;17.93;;;;;;;-142.65;100.00;50168.78;5113779;28;20201;-68
2022/10/15 07:12:50;;;;;;;21.43;17.47;;;;;;;-142.65;100.00;50174.75;5114019;28;20531;-68
2022/10/15 07:15:18;;;;;;;32.10;17.73;;;;;;;-142.65;100.00;50162.81;5113823;28;20203;-68
2022/10/15 07:17:48;;;;;;;24.93;17.47;;;;;;;;;;5113700;28;20674;-68
2022/10/15 07:20:14;;;;;;;26.77;18.73;;;;;;;-142.65;100.00;50164.81;5113675;28;20216;-68
2022/10/15 07:22:47;;;;;;;29.97;19.23;;;;;;;-142.65;100.00;50162.81;5113682;28;20226;-68
2022/10/15 07:25:14;;;;;;;29.97;17.50;;;;;;;-142.65;100.00;50170.78;5113575;28;20179;-68
2022/10/15 07:27:41;;;;;;;27.00;16.37;;;;;;;-142.65;100.00;50164.81;5114132;28;20540;-68
2022/10/15 07:30:08;;;;;;;23.83;16.83;;;;;;;-142.65;100.00;50164.81;5113611;28;20197;-68
2022/10/15 07:32:34;;;;;;;28.90;17.80;;;;;;;;;;5113532;28;20192;-68
2022/10/15 07:35:00;;;;;;;23.97;17.00;;;;;;;;;;5113813;28;20674;-68
2022/10/15 07:37:27;;;;;;;19.73;15.57;;;;;;;;;;5113827;28;20227;-68
2022/10/15 07:39:54;;;;;;;24.70;15.97;;;;;;;-142.65;98.97;50162.81;5113685;28;20213;-68
2022/10/15 07:42:20;;;;;;;21.90;15.63;;;;;;;-142.65;98.55;50164.81;5113530;28;20193;-67
2022/10/15 07:44:47;;;;;;;17.70;15.07;;;;;;;;;;5113443;28;20185;-67
2022/10/15 07:47:14;;;;;;;24.30;16.03;;;;;;;;;;5113963;28;20177;-68
2022/10/15 07:49:41;;;;;;;20.77;14.20;;;;;;;-142.65;97.31;50162.81;5113289;28;20185;-68
2022/10/15 07:52:07;;;;;;;24.20;15.80;;;;;;;;;;5113243;28;20201;-68
2022/10/15 07:54:34;;;;;;;23.60;14.53;;;;;;;-142.65;97.22;50172.78;5113559;28;20181;-68
2022/10/15 07:57:01;;;;;;;17.97;14.83;;;;;;;-142.65;96.59;50162.81;5113787;28;20183;-68
2022/10/15 07:59:27;;;;;;;22.33;14.43;;;;;;;-142.65;95.88;50162.81;5113257;28;20186;-68
2022/10/15 08:01:53;;;;;;;22.60;15.57;;;;;;;;;;5113152;28;20200;-68
2022/10/15 08:04:20;;;;;;;19.97;14.33;;;;;;;;;;5113253;28;20188;-68
2022/10/15 08:06:48;;;;;;;18.17;14.53;;;;;;;;;;5113413;28;20563;-67
2022/10/15 08:09:15;;;;;;;19.43;13.47;;;;;;;-142.65;94.76;50164.81;5113487;28;20185;-67
2022/10/15 08:11:41;;;;;;;29.73;15.47;;;;;;;-142.65;94.66;50170.78;5113021;28;20682;-68
2022/10/15 08:14:08;;;;;;;22.33;15.40;;;;;;;-142.65;94.41;50164.81;5116662;28;20197;-68
2022/10/15 08:16:35;;;;;;;20.87;13.97;;;;;;;-142.65;93.74;50118.97;5117466;28;20189;-68
2022/10/15 08:19:01;;;;;;;26.07;14.27;;;;;;;-142.65;92.57;50162.81;5117115;28;20192;-67
2022/10/15 08:21:27;;;;;;;25.50;16.10;;;;;;;;;;5116796;28;20210;-68
2022/10/15 08:23:54;;;;;;;26.13;15.43;;;;;;;;;;5116793;28;20189;-68
2022/10/15 08:26:28;;;;;;;23.00;15.00;;;;;;;-142.65;91.77;50164.81;5117068;28;20633;-68
2022/10/15 08:28:54;;;;;;;14.67;13.17;;;;;;;-142.65;91.50;50164.81;5116927;28;20222;-68
2022/10/15 08:31:21;;;;;;;18.83;14.67;;;;;;;;;;5116492;28;20679;-68
2022/10/15 08:33:49;;;;;;;17.47;13.33;;;;;;;-142.65;90.06;50168.78;5117134;28;20183;-68
2022/10/15 08:36:15;;;;;;;15.17;13.60;;;;;;;-142.65;90.26;50162.81;5117060;28;20193;-68
2022/10/15 08:38:43;;;;;;;16.67;12.43;;;;;;;-142.65;90.70;50168.78;5116554;28;20188;-68
2022/10/15 08:41:31;;;;;;;13.70;12.40;;;;;;;-142.65;90.36;50162.81;5116516;28;20220;-68
2022/10/15 08:43:58;;;;;;;12.33;11.03;;;;;;;-142.65;90.46;50164.81;5116723;28;20552;-68
2022/10/15 08:46:34;;;;;;;12.13;11.17;;;;;;;-142.65;89.47;50162.81;5116359;28;20193;-68
2022/10/15 08:49:01;;;;;;;10.27;9.63;;;;;;;-142.65;89.76;50160.81;5116601;28;20195;-68
2022/10/15 08:51:43;;;;;;;19.97;10.93;;;;;;;-142.65;88.98;50162.81;5116390;28;20220;-68
2022/10/15 08:54:15;;;;;;;10.13;9.53;;;;;;;-142.65;88.24;50162.81;5116551;28;20182;-68
2022/10/15 08:56:47;;;;;;;9.63;8.73;;;;;;;;;;5116233;28;20188;-68
2022/10/15 08:59:39;;;;;;;9.50;8.73;;;;;;;;;;5116367;28;20212;-68
2022/10/15 09:02:24;;;;;;;9.63;8.93;;;;;;;-142.65;86.36;50117.00;5116657;28;20501;-68
2022/10/15 09:05:20;;;;;;;8.93;8.37;;;;;;;-142.65;86.04;50162.81;5116265;28;20631;-68
2022/10/15 09:07:53;;;;;;;8.33;8.00;;;;;;;-142.65;86.25;50164.81;5116224;28;20193;-68
2022/10/15 09:10:34;;;;;;;7.17;6.97;;;;;;;-142.65;86.95;50164.81;5115789;28;20209;-68
2022/10/15 09:13:03;;;;;;;7.60;7.00;;;;;;;;;;5116362;28;20188;-68
2022/10/15 09:15:50;;;;;;;5.03;4.93;;;;;;;-142.65;85.33;50168.78;5097732;28;20564;-68
2022/10/15 09:18:22;;;;;;;5.30;5.20;;;;;;;-142.65;85.42;50164.81;5098132;28;20177;-68
2022/10/15 09:20:48;;;;;;;5.60;5.47;;;;;;;;;;5115626;28;20236;-68
2022/10/15 09:23:25;;;;;;;5.03;4.93;;;;;;;-142.65;85.47;50117.00;5115822;28;20189;-68
2022/10/15 09:26:02;;;;;;;4.10;3.97;;;;;;;-142.65;83.99;50162.81;5115915;28;20173;-68
2022/10/15 09:28:40;;;;;;;3.97;3.97;;;;;;;-142.65;85.00;50168.78;5115857;28;20169;-68
2022/10/15 09:31:12;;;;;;;3.50;3.50;;;;;;;-142.65;84.18;50164.81;5115660;28;20581;-68
2022/10/15 09:33:55;;;;;;;3.67;3.60;;;;;;;-142.65;85.11;50164.81;5115831;28;20166;-68
2022/10/15 09:36:30;;;;;;;2.87;2.87;;;;;;;;;;5115670;28;20177;-68
2022/10/15 09:39:08;;;;;;;15.13;3.97;;;;;;;-142.65;82.67;50162.81;5115912;28;20197;-68
2022/10/15 09:41:56;;;;;;;2.47;2.47;;;;;;;-142.65;80.26;50162.81;5115507;28;20212;-68
2022/10/15 09:44:26;;;;;;;2.27;1.97;;;;;;;-142.65;81.25;50162.81;5115452;28;20182;-68
2022/10/15 09:46:53;;;;;;;2.30;2.30;;;;;;;-142.65;80.24;50168.78;5115123;28;20193;-68
2022/10/15 09:49:23;;;;;;;1.90;1.80;;;;;;;-142.65;80.08;50162.81;5115100;28;20192;-68
2022/10/15 09:52:09;;;;;;;2.10;2.10;;;;;;;-142.65;81.47;50162.81;5114945;28;20208;-68
2022/10/15 09:54:45;;;;;;;2.30;1.90;;;;;;;-142.65;81.61;50162.81;5115511;28;20549;-68
2022/10/15 09:57:13;;;;;;;2.17;2.00;;;;;;;-142.65;79.97;50170.78;5114976;28;20169;-68
2022/10/15 09:59:55;;;;;;;2.27;2.27;;;;;;;-142.65;79.41;50162.81;5114789;28;20185;-69
2022/10/15 10:02:24;;;;;;;1.73;1.73;;;;;;;-142.65;79.82;50162.81;5115315;28;20200;-68
2022/10/15 10:04:51;;;;;;;1.70;1.70;;;;;;;;;;5114743;28;20185;-68
2022/10/15 10:07:30;;;;;;;1.40;1.40;;;;;;;;;;5114588;28;20181;-68
2022/10/15 10:09:59;;;;;;;1.73;1.73;;;;;;;-142.65;80.75;50164.81;5114964;28;20227;-68
2022/10/15 10:12:33;;;;;;;1.47;1.47;;;;;;;;;;5114652;28;20536;-68
2022/10/15 10:15:03;;;;;;;1.20;1.20;;;;;;;;;;5114642;28;20236;-68
2022/10/15 10:17:30;;;;;;;1.40;1.40;;;;;;;-142.65;81.15;50101.06;5114593;28;20578;-68
2022/10/15 10:20:09;;;;;;;1.50;1.50;;;;;;;;;;5114349;28;20209;-69
2022/10/15 10:22:46;;;;;;;3.60;1.53;;;;;;;-142.65;81.71;50168.78;5115080;28;20173;-68
2022/10/15 10:25:26;;;;;;;1.57;1.57;;;;;;;-142.65;81.77;50168.78;5115075;28;20179;-68
2022/10/15 10:27:54;;;;;;;1.33;1.33;;;;;;;-142.65;81.93;50164.81;5114421;28;20176;-68
2022/10/15 10:30:22;;;;;;;1.33;1.33;;;;;;;-142.65;82.71;50164.81;5114573;28;20281;-68
2022/10/15 10:32:55;;;;;;;1.50;1.50;;;;;;;-142.65;82.91;50160.81;5114315;28;20205;-68
2022/10/15 10:35:26;;;;;;;1.57;1.57;;;;;;;-142.65;82.75;50164.81;5114087;28;20169;-68
2022/10/15 10:37:52;;;;;;;5.00;1.27;;;;;;;-142.65;83.08;50118.97;5114518;28;20207;-68
2022/10/15 10:40:31;;;;;;;1.80;1.80;;;;;;;-142.65;83.67;50162.81;5114223;28;20220;-68
2022/10/15 10:43:15;;;;;;;1.40;1.40;;;;;;;-142.65;83.35;50162.81;5114407;28;20196;-68
2022/10/15 10:46:15;;;;;;;1.00;1.00;;;;;;;-142.65;83.89;50162.81;5114464;28;20173;-68
2022/10/15 10:48:51;;;;;;;1.20;1.20;;;;;;;;;;5108528;28;20204;-68
2022/10/15 10:51:21;;;;;;;1.30;1.30;;;;;;;;;;5114133;28;20689;-68
2022/10/15 10:54:00;;;;;;;1.20;1.20;;;;;;;;;;5114848;28;20611;-68
2022/10/15 10:56:32;;;;;;;1.10;1.10;;;;;;;;;;5115022;28;20532;-68
2022/10/15 10:59:21;;;;;;;1.10;1.10;;;;;;;-142.65;86.36;50164.81;5114363;28;20196;-68
2022/10/15 11:01:48;;;;;;;1.50;1.50;;;;;;;-142.65;86.96;50162.81;5113661;28;20717;-68
2022/10/15 11:04:25;;;;;;;1.20;1.20;;;;;;;-142.65;87.19;50162.81;5114412;28;20216;-68
2022/10/15 11:06:55;;;;;;;1.23;1.23;;;;;;;-142.65;88.50;50164.81;5114404;28;20173;-68
2022/10/15 11:09:21;;;;;;;1.13;1.13;;;;;;;;;;5113759;28;20177;-68
2022/10/15 11:12:02;;;;;;;1.20;1.20;;;;;;;;;;5113573;28;20578;-68
2022/10/15 11:14:54;;;;;;;1.13;1.13;;;;;;;-142.65;91.19;50168.78;5113937;28;20263;-68
2022/10/15 11:17:45;;;;;;;1.87;1.20;;;;;;;-142.65;91.49;50164.81;5113703;28;20169;-68
2022/10/15 11:20:27;;;;;;;1.03;1.03;;;;;;;-142.65;91.79;50162.81;5114505;28;20609;-68
2022/10/15 11:23:25;;;;;;;1.00;1.00;;;;;;;-142.65;92.06;50160.81;5113844;28;20192;-68
2022/10/15 11:25:56;;;;;;;1.10;1.10;;;;;;;-142.65;92.17;50162.81;5114189;28;20549;-68
2022/10/15 11:28:41;;;;;;;1.30;1.30;;;;;;;;;;5114636;28;20188;-68
2022/10/15 11:31:07;;;;;;;1.23;1.20;;;;;;;-142.65;92.62;50162.81;5113681;28;20266;-68
2022/10/15 11:33:40;;;;;;;4.03;1.70;;;;;;;-142.65;92.71;50162.81;5113871;28;20204;-68
2022/10/15 11:36:29;;;;;;;0.90;0.90;;;;;;;;;;5113795;28;20623;-68
2022/10/15 11:39:16;;;;;;;1.20;1.20;;;;;;;;;;5095713;28;20554;-68
2022/10/15 11:42:01;;;;;;;1.20;1.20;;;;;;;-142.65;93.57;50162.81;5113658;28;20573;-68
2022/10/15 11:44:41;;;;;;;1.00;1.00;;;;;;;-142.65;92.27;50164.81;5114126;28;20177;-68
2022/10/15 11:47:15;;;;;;;1.40;1.30;;;;;;;;;;5114080;28;20161;-68
2022/10/15 11:50:02;;;;;;;1.73;1.30;;;;;;;-142.65;92.85;50162.81;5082488;28;20185;-68
2022/10/15 11:53:03;;;;;;;1.30;1.30;;;;;;;-142.65;92.55;50162.81;5117665;28;20200;-68
2022/10/15 11:55:59;;;;;;;1.10;1.10;;;;;;;-142.65;92.23;50162.81;5099106;28;20294;-68
2022/10/15 11:58:34;;;;;;;1.13;1.13;;;;;;;-142.65;92.40;50160.81;5117611;28;20169;-68
2022/10/15 12:01:10;;;;;;;1.20;1.20;;;;;;;;;;5117772;28;20212;-68
2022/10/15 12:03:47;;;;;;;1.23;1.23;;;;;;;-142.65;91.95;50164.81;5117519;28;20188;-68
2022/10/15 12:06:18;;;;;;;1.30;1.30;;;;;;;-142.65;91.60;50164.81;5117738;28;20230;-68
2022/10/15 12:08:46;;;;;;;1.20;1.20;;;;;;;-142.65;91.57;50164.81;5117400;28;20648;-68
2022/10/15 12:11:12;;;;;;;1.40;1.40;;;;;;;-142.65;91.75;50162.81;5117071;28;20209;-68
2022/10/15 12:14:06;;;;;;;1.50;1.50;;;;;;;-142.65;91.35;50164.81;5116972;28;20204;-68
2022/10/15 12:16:44;;;;;;;1.50;1.50;;;;;;;;;;5117253;28;20169;-68